sensor_id;sensor_type;location;lat;lon;timestamp;P1;durP1;ratioP1;P2;durP2;ratioP2
36653;SDS011;22650;49.350;20.898;2024-03-02T00:01:00;39.38;;;24.58;;
36653;SDS011;22650;49.350;20.898;2024-03-02T00:03:35;48.78;;;30.00;;
36653;SDS011;22650;49.350;20.898;2024-03-02T00:06:10;43.05;;;26.48;;
36653;SDS011;22650;49.350;20.898;2024-03-02T00:08:43;45.67;;;28.35;;
36653;SDS011;22650;49.350;20.898;2024-03-02T00:11:17;43.40;;;26.58;;
36653;SDS011;22650;49.350;20.898;2024-03-02T00:13:53;44.88;;;28.00;;
36653;SDS011;22650;49.350;20.898;2024-03-02T00:16:29;45.80;;;27.48;;
36653;SDS011;22650;49.350;20.898;2024-03-02T00:19:04;42.65;;;26.77;;
36653;SDS011;22650;49.350;20.898;2024-03-02T00:21:39;43.05;;;26.90;;
36653;SDS011;22650;49.350;20.898;2024-03-02T00:24:17;40.85;;;27.52;;
36653;SDS011;22650;49.350;20.898;2024-03-02T00:26:54;52.80;;;30.17;;
36653;SDS011;22650;49.350;20.898;2024-03-02T00:29:28;42.47;;;26.40;;
36653;SDS011;22650;49.350;20.898;2024-03-02T00:32:02;41.95;;;26.58;;
36653;SDS011;22650;49.350;20.898;2024-03-02T00:34:36;43.67;;;27.30;;
36653;SDS011;22650;49.350;20.898;2024-03-02T00:37:09;54.15;;;29.58;;
36653;SDS011;22650;49.350;20.898;2024-03-02T00:39:46;49.97;;;29.77;;
36653;SDS011;22650;49.350;20.898;2024-03-02T00:42:22;52.25;;;29.40;;
36653;SDS011;22650;49.350;20.898;2024-03-02T00:44:57;39.03;;;24.60;;
36653;SDS011;22650;49.350;20.898;2024-03-02T00:47:31;46.30;;;27.10;;
36653;SDS011;22650;49.350;20.898;2024-03-02T00:50:05;44.50;;;25.48;;
36653;SDS011;22650;49.350;20.898;2024-03-02T00:52:53;34.42;;;21.55;;
36653;SDS011;22650;49.350;20.898;2024-03-02T00:55:27;36.13;;;22.30;;
36653;SDS011;22650;49.350;20.898;2024-03-02T00:58:01;36.30;;;20.88;;
36653;SDS011;22650;49.350;20.898;2024-03-02T01:00:36;37.95;;;21.50;;
36653;SDS011;22650;49.350;20.898;2024-03-02T01:03:09;36.30;;;21.33;;
36653;SDS011;22650;49.350;20.898;2024-03-02T01:05:43;43.42;;;25.27;;
36653;SDS011;22650;49.350;20.898;2024-03-02T01:08:16;42.25;;;26.42;;
36653;SDS011;22650;49.350;20.898;2024-03-02T01:10:50;39.10;;;23.98;;
36653;SDS011;22650;49.350;20.898;2024-03-02T01:13:24;40.28;;;24.25;;
36653;SDS011;22650;49.350;20.898;2024-03-02T01:15:59;36.92;;;22.00;;
36653;SDS011;22650;49.350;20.898;2024-03-02T01:18:34;34.47;;;21.30;;
36653;SDS011;22650;49.350;20.898;2024-03-02T01:21:07;35.88;;;22.38;;
36653;SDS011;22650;49.350;20.898;2024-03-02T01:23:41;37.90;;;21.23;;
36653;SDS011;22650;49.350;20.898;2024-03-02T01:26:15;36.22;;;21.77;;
36653;SDS011;22650;49.350;20.898;2024-03-02T01:28:48;41.42;;;22.40;;
36653;SDS011;22650;49.350;20.898;2024-03-02T01:31:23;37.33;;;20.38;;
36653;SDS011;22650;49.350;20.898;2024-03-02T01:33:57;40.25;;;23.30;;
36653;SDS011;22650;49.350;20.898;2024-03-02T01:36:31;39.10;;;21.85;;
36653;SDS011;22650;49.350;20.898;2024-03-02T01:39:04;43.78;;;23.83;;
36653;SDS011;22650;49.350;20.898;2024-03-02T01:41:40;39.20;;;22.45;;
36653;SDS011;22650;49.350;20.898;2024-03-02T01:44:14;30.83;;;18.90;;
36653;SDS011;22650;49.350;20.898;2024-03-02T01:46:50;36.60;;;21.13;;
36653;SDS011;22650;49.350;20.898;2024-03-02T01:49:23;39.25;;;21.90;;
36653;SDS011;22650;49.350;20.898;2024-03-02T01:51:57;35.42;;;20.23;;
36653;SDS011;22650;49.350;20.898;2024-03-02T01:54:30;33.95;;;19.60;;
36653;SDS011;22650;49.350;20.898;2024-03-02T01:57:04;36.38;;;20.55;;
36653;SDS011;22650;49.350;20.898;2024-03-02T01:59:39;35.30;;;20.98;;
36653;SDS011;22650;49.350;20.898;2024-03-02T02:02:14;38.58;;;20.77;;
36653;SDS011;22650;49.350;20.898;2024-03-02T02:04:47;36.03;;;20.63;;
36653;SDS011;22650;49.350;20.898;2024-03-02T02:07:21;28.70;;;17.63;;
36653;SDS011;22650;49.350;20.898;2024-03-02T02:09:54;39.08;;;20.65;;
36653;SDS011;22650;49.350;20.898;2024-03-02T02:12:28;31.63;;;19.17;;
36653;SDS011;22650;49.350;20.898;2024-03-02T02:15:02;33.20;;;19.58;;
36653;SDS011;22650;49.350;20.898;2024-03-02T02:17:38;27.60;;;16.73;;
36653;SDS011;22650;49.350;20.898;2024-03-02T02:22:56;29.10;;;17.75;;
36653;SDS011;22650;49.350;20.898;2024-03-02T02:25:31;29.90;;;18.75;;
36653;SDS011;22650;49.350;20.898;2024-03-02T02:28:04;27.95;;;18.75;;
36653;SDS011;22650;49.350;20.898;2024-03-02T02:30:38;36.20;;;20.48;;
36653;SDS011;22650;49.350;20.898;2024-03-02T02:33:12;27.92;;;18.45;;
36653;SDS011;22650;49.350;20.898;2024-03-02T02:35:45;25.60;;;15.18;;
36653;SDS011;22650;49.350;20.898;2024-03-02T02:38:20;23.88;;;14.98;;
36653;SDS011;22650;49.350;20.898;2024-03-02T02:40:54;28.65;;;16.63;;
36653;SDS011;22650;49.350;20.898;2024-03-02T02:43:27;24.42;;;15.18;;
36653;SDS011;22650;49.350;20.898;2024-03-02T02:46:01;23.60;;;14.05;;
36653;SDS011;22650;49.350;20.898;2024-03-02T02:48:35;31.83;;;18.15;;
36653;SDS011;22650;49.350;20.898;2024-03-02T02:51:08;30.33;;;18.67;;
36653;SDS011;22650;49.350;20.898;2024-03-02T02:53:43;38.60;;;21.33;;
36653;SDS011;22650;49.350;20.898;2024-03-02T02:58:51;24.25;;;14.88;;
36653;SDS011;22650;49.350;20.898;2024-03-02T03:01:24;27.80;;;16.05;;
36653;SDS011;22650;49.350;20.898;2024-03-02T03:03:58;25.80;;;15.18;;
36653;SDS011;22650;49.350;20.898;2024-03-02T03:06:32;27.70;;;17.20;;
36653;SDS011;22650;49.350;20.898;2024-03-02T03:09:07;27.95;;;16.77;;
36653;SDS011;22650;49.350;20.898;2024-03-02T03:11:42;29.30;;;16.80;;
36653;SDS011;22650;49.350;20.898;2024-03-02T03:14:16;28.02;;;15.52;;
36653;SDS011;22650;49.350;20.898;2024-03-02T03:16:50;27.13;;;16.00;;
36653;SDS011;22650;49.350;20.898;2024-03-02T03:19:24;25.17;;;14.32;;
36653;SDS011;22650;49.350;20.898;2024-03-02T03:21:57;18.92;;;12.43;;
36653;SDS011;22650;49.350;20.898;2024-03-02T03:24:32;23.45;;;14.50;;
36653;SDS011;22650;49.350;20.898;2024-03-02T03:27:06;30.88;;;16.98;;
36653;SDS011;22650;49.350;20.898;2024-03-02T03:29:40;27.35;;;15.77;;
36653;SDS011;22650;49.350;20.898;2024-03-02T03:32:13;24.30;;;14.52;;
36653;SDS011;22650;49.350;20.898;2024-03-02T03:34:48;23.42;;;14.30;;
36653;SDS011;22650;49.350;20.898;2024-03-02T03:37:22;26.85;;;15.45;;
36653;SDS011;22650;49.350;20.898;2024-03-02T03:39:57;21.52;;;14.05;;
36653;SDS011;22650;49.350;20.898;2024-03-02T03:42:30;24.38;;;13.63;;
36653;SDS011;22650;49.350;20.898;2024-03-02T03:45:04;20.02;;;12.48;;
36653;SDS011;22650;49.350;20.898;2024-03-02T03:47:38;20.20;;;11.95;;
36653;SDS011;22650;49.350;20.898;2024-03-02T03:50:12;23.58;;;13.13;;
36653;SDS011;22650;49.350;20.898;2024-03-02T03:52:46;21.30;;;12.43;;
36653;SDS011;22650;49.350;20.898;2024-03-02T03:55:20;24.70;;;14.25;;
36653;SDS011;22650;49.350;20.898;2024-03-02T03:57:54;19.13;;;12.07;;
36653;SDS011;22650;49.350;20.898;2024-03-02T04:00:28;18.77;;;11.30;;
36653;SDS011;22650;49.350;20.898;2024-03-02T04:03:01;23.33;;;13.45;;
36653;SDS011;22650;49.350;20.898;2024-03-02T04:05:35;21.80;;;13.50;;
36653;SDS011;22650;49.350;20.898;2024-03-02T04:08:10;20.88;;;13.52;;
36653;SDS011;22650;49.350;20.898;2024-03-02T04:10:45;20.42;;;12.75;;
36653;SDS011;22650;49.350;20.898;2024-03-02T04:13:18;20.02;;;11.73;;
36653;SDS011;22650;49.350;20.898;2024-03-02T04:15:52;21.95;;;12.82;;
36653;SDS011;22650;49.350;20.898;2024-03-02T04:18:26;25.10;;;13.35;;
36653;SDS011;22650;49.350;20.898;2024-03-02T04:21:00;20.05;;;11.43;;
36653;SDS011;22650;49.350;20.898;2024-03-02T04:23:33;22.52;;;11.73;;
36653;SDS011;22650;49.350;20.898;2024-03-02T04:26:08;24.25;;;13.70;;
36653;SDS011;22650;49.350;20.898;2024-03-02T04:28:42;20.58;;;12.25;;
36653;SDS011;22650;49.350;20.898;2024-03-02T04:31:15;22.40;;;12.95;;
36653;SDS011;22650;49.350;20.898;2024-03-02T04:33:49;21.17;;;12.32;;
36653;SDS011;22650;49.350;20.898;2024-03-02T04:36:23;21.17;;;12.57;;
36653;SDS011;22650;49.350;20.898;2024-03-02T04:38:56;20.15;;;12.10;;
36653;SDS011;22650;49.350;20.898;2024-03-02T04:41:31;25.67;;;12.90;;
36653;SDS011;22650;49.350;20.898;2024-03-02T04:44:05;21.63;;;12.88;;
36653;SDS011;22650;49.350;20.898;2024-03-02T04:46:39;20.35;;;12.48;;
36653;SDS011;22650;49.350;20.898;2024-03-02T04:49:16;16.42;;;10.90;;
36653;SDS011;22650;49.350;20.898;2024-03-02T04:51:50;22.65;;;13.63;;
36653;SDS011;22650;49.350;20.898;2024-03-02T04:54:24;19.92;;;11.95;;
36653;SDS011;22650;49.350;20.898;2024-03-02T04:56:59;18.75;;;12.07;;
36653;SDS011;22650;49.350;20.898;2024-03-02T04:59:33;20.25;;;13.10;;
36653;SDS011;22650;49.350;20.898;2024-03-02T05:02:06;19.38;;;11.35;;
36653;SDS011;22650;49.350;20.898;2024-03-02T05:04:40;19.25;;;11.63;;
36653;SDS011;22650;49.350;20.898;2024-03-02T05:07:13;17.75;;;10.85;;
36653;SDS011;22650;49.350;20.898;2024-03-02T05:09:47;23.17;;;13.45;;
36653;SDS011;22650;49.350;20.898;2024-03-02T05:12:22;19.33;;;12.93;;
36653;SDS011;22650;49.350;20.898;2024-03-02T05:15:19;18.55;;;12.48;;
36653;SDS011;22650;49.350;20.898;2024-03-02T05:17:51;20.33;;;11.68;;
36653;SDS011;22650;49.350;20.898;2024-03-02T05:20:25;23.48;;;13.00;;
36653;SDS011;22650;49.350;20.898;2024-03-02T05:22:58;24.77;;;14.60;;
36653;SDS011;22650;49.350;20.898;2024-03-02T05:25:32;22.88;;;12.73;;
36653;SDS011;22650;49.350;20.898;2024-03-02T05:28:09;28.63;;;14.57;;
36653;SDS011;22650;49.350;20.898;2024-03-02T05:33:16;26.65;;;14.93;;
36653;SDS011;22650;49.350;20.898;2024-03-02T05:35:50;24.73;;;14.73;;
36653;SDS011;22650;49.350;20.898;2024-03-02T05:38:23;26.85;;;14.98;;
36653;SDS011;22650;49.350;20.898;2024-03-02T05:40:57;23.30;;;13.70;;
36653;SDS011;22650;49.350;20.898;2024-03-02T05:43:32;25.85;;;14.00;;
36653;SDS011;22650;49.350;20.898;2024-03-02T05:46:05;22.45;;;13.10;;
36653;SDS011;22650;49.350;20.898;2024-03-02T05:48:39;24.90;;;15.40;;
36653;SDS011;22650;49.350;20.898;2024-03-02T05:51:13;19.52;;;13.25;;
36653;SDS011;22650;49.350;20.898;2024-03-02T05:53:46;25.58;;;14.27;;
36653;SDS011;22650;49.350;20.898;2024-03-02T05:56:20;27.02;;;14.95;;
36653;SDS011;22650;49.350;20.898;2024-03-02T05:58:55;21.55;;;13.07;;
36653;SDS011;22650;49.350;20.898;2024-03-02T06:01:40;20.40;;;12.95;;
36653;SDS011;22650;49.350;20.898;2024-03-02T06:04:14;27.17;;;16.15;;
36653;SDS011;22650;49.350;20.898;2024-03-02T06:06:48;32.03;;;16.85;;
36653;SDS011;22650;49.350;20.898;2024-03-02T06:09:22;27.83;;;15.00;;
36653;SDS011;22650;49.350;20.898;2024-03-02T06:11:56;26.23;;;15.75;;
36653;SDS011;22650;49.350;20.898;2024-03-02T06:14:31;40.80;;;20.73;;
36653;SDS011;22650;49.350;20.898;2024-03-02T06:17:05;29.23;;;16.65;;
36653;SDS011;22650;49.350;20.898;2024-03-02T06:19:38;27.30;;;15.55;;
36653;SDS011;22650;49.350;20.898;2024-03-02T06:22:12;33.42;;;18.25;;
36653;SDS011;22650;49.350;20.898;2024-03-02T06:24:46;31.05;;;18.05;;
36653;SDS011;22650;49.350;20.898;2024-03-02T06:27:19;41.63;;;19.80;;
36653;SDS011;22650;49.350;20.898;2024-03-02T06:29:54;39.03;;;19.33;;
36653;SDS011;22650;49.350;20.898;2024-03-02T06:32:28;39.15;;;18.90;;
36653;SDS011;22650;49.350;20.898;2024-03-02T06:35:01;42.50;;;21.13;;
36653;SDS011;22650;49.350;20.898;2024-03-02T06:37:36;40.28;;;18.90;;
36653;SDS011;22650;49.350;20.898;2024-03-02T06:40:12;30.58;;;17.38;;
36653;SDS011;22650;49.350;20.898;2024-03-02T06:42:45;38.25;;;19.45;;
36653;SDS011;22650;49.350;20.898;2024-03-02T06:45:20;39.83;;;20.90;;
36653;SDS011;22650;49.350;20.898;2024-03-02T06:47:54;40.25;;;20.13;;
36653;SDS011;22650;49.350;20.898;2024-03-02T06:50:28;41.10;;;19.25;;
36653;SDS011;22650;49.350;20.898;2024-03-02T06:53:02;36.65;;;18.42;;
36653;SDS011;22650;49.350;20.898;2024-03-02T06:55:36;29.65;;;16.77;;
36653;SDS011;22650;49.350;20.898;2024-03-02T06:58:10;34.78;;;19.83;;
36653;SDS011;22650;49.350;20.898;2024-03-02T07:00:46;36.17;;;22.60;;
36653;SDS011;22650;49.350;20.898;2024-03-02T07:03:34;40.00;;;22.95;;
36653;SDS011;22650;49.350;20.898;2024-03-02T07:06:11;41.85;;;23.85;;
36653;SDS011;22650;49.350;20.898;2024-03-02T07:08:45;38.22;;;22.85;;
36653;SDS011;22650;49.350;20.898;2024-03-02T07:11:18;35.35;;;21.67;;
36653;SDS011;22650;49.350;20.898;2024-03-02T07:13:52;28.48;;;19.35;;
36653;SDS011;22650;49.350;20.898;2024-03-02T07:16:27;32.72;;;19.60;;
36653;SDS011;22650;49.350;20.898;2024-03-02T07:19:01;32.30;;;18.42;;
36653;SDS011;22650;49.350;20.898;2024-03-02T07:21:35;31.20;;;18.02;;
36653;SDS011;22650;49.350;20.898;2024-03-02T07:24:08;29.88;;;18.20;;
36653;SDS011;22650;49.350;20.898;2024-03-02T07:26:45;26.02;;;17.63;;
36653;SDS011;22650;49.350;20.898;2024-03-02T07:29:21;26.75;;;16.25;;
36653;SDS011;22650;49.350;20.898;2024-03-02T07:31:56;23.98;;;14.68;;
36653;SDS011;22650;49.350;20.898;2024-03-02T07:34:30;28.77;;;18.02;;
36653;SDS011;22650;49.350;20.898;2024-03-02T07:37:04;25.55;;;15.98;;
36653;SDS011;22650;49.350;20.898;2024-03-02T07:39:38;24.15;;;15.50;;
36653;SDS011;22650;49.350;20.898;2024-03-02T07:42:12;23.33;;;14.60;;
36653;SDS011;22650;49.350;20.898;2024-03-02T07:44:46;24.73;;;15.55;;
36653;SDS011;22650;49.350;20.898;2024-03-02T07:47:21;28.33;;;16.10;;
36653;SDS011;22650;49.350;20.898;2024-03-02T07:49:55;29.48;;;17.20;;
36653;SDS011;22650;49.350;20.898;2024-03-02T07:52:29;30.90;;;19.05;;
36653;SDS011;22650;49.350;20.898;2024-03-02T07:55:02;30.55;;;17.85;;
36653;SDS011;22650;49.350;20.898;2024-03-02T07:57:36;32.47;;;17.88;;
36653;SDS011;22650;49.350;20.898;2024-03-02T08:00:10;23.58;;;15.15;;
36653;SDS011;22650;49.350;20.898;2024-03-02T08:02:47;30.02;;;16.60;;
36653;SDS011;22650;49.350;20.898;2024-03-02T08:05:22;25.80;;;16.45;;
36653;SDS011;22650;49.350;20.898;2024-03-02T08:07:56;36.60;;;19.15;;
36653;SDS011;22650;49.350;20.898;2024-03-02T08:10:30;29.35;;;16.60;;
36653;SDS011;22650;49.350;20.898;2024-03-02T08:13:05;25.65;;;14.93;;
36653;SDS011;22650;49.350;20.898;2024-03-02T08:15:39;24.50;;;16.25;;
36653;SDS011;22650;49.350;20.898;2024-03-02T08:18:14;29.42;;;16.65;;
36653;SDS011;22650;49.350;20.898;2024-03-02T08:23:21;26.13;;;14.25;;
36653;SDS011;22650;49.350;20.898;2024-03-02T08:25:55;25.20;;;15.70;;
36653;SDS011;22650;49.350;20.898;2024-03-02T08:28:28;27.25;;;17.27;;
36653;SDS011;22650;49.350;20.898;2024-03-02T08:31:02;21.35;;;14.30;;
36653;SDS011;22650;49.350;20.898;2024-03-02T08:33:37;28.02;;;16.45;;
36653;SDS011;22650;49.350;20.898;2024-03-02T08:36:12;31.23;;;18.60;;
36653;SDS011;22650;49.350;20.898;2024-03-02T08:38:45;27.60;;;16.70;;
36653;SDS011;22650;49.350;20.898;2024-03-02T08:41:21;24.70;;;15.18;;
36653;SDS011;22650;49.350;20.898;2024-03-02T08:43:55;27.08;;;16.83;;
36653;SDS011;22650;49.350;20.898;2024-03-02T08:46:28;26.00;;;16.27;;
36653;SDS011;22650;49.350;20.898;2024-03-02T08:49:03;28.40;;;17.30;;
36653;SDS011;22650;49.350;20.898;2024-03-02T08:54:10;22.35;;;14.07;;
36653;SDS011;22650;49.350;20.898;2024-03-02T08:56:44;24.25;;;14.43;;
36653;SDS011;22650;49.350;20.898;2024-03-02T08:59:18;23.08;;;14.93;;
36653;SDS011;22650;49.350;20.898;2024-03-02T09:01:51;27.13;;;15.43;;
36653;SDS011;22650;49.350;20.898;2024-03-02T09:04:27;25.05;;;16.15;;
36653;SDS011;22650;49.350;20.898;2024-03-02T09:07:05;28.65;;;18.98;;
36653;SDS011;22650;49.350;20.898;2024-03-02T09:09:39;30.90;;;18.48;;
36653;SDS011;22650;49.350;20.898;2024-03-02T09:12:13;32.80;;;21.05;;
36653;SDS011;22650;49.350;20.898;2024-03-02T09:14:46;29.58;;;19.27;;
36653;SDS011;22650;49.350;20.898;2024-03-02T09:17:20;29.23;;;20.38;;
36653;SDS011;22650;49.350;20.898;2024-03-02T09:19:55;28.67;;;18.95;;
36653;SDS011;22650;49.350;20.898;2024-03-02T09:25:03;18.20;;;12.57;;
36653;SDS011;22650;49.350;20.898;2024-03-02T09:27:39;19.27;;;12.52;;
36653;SDS011;22650;49.350;20.898;2024-03-02T09:30:13;20.45;;;13.07;;
36653;SDS011;22650;49.350;20.898;2024-03-02T09:32:47;20.13;;;12.95;;
36653;SDS011;22650;49.350;20.898;2024-03-02T09:35:22;18.35;;;12.13;;
36653;SDS011;22650;49.350;20.898;2024-03-02T09:37:57;19.25;;;12.48;;
36653;SDS011;22650;49.350;20.898;2024-03-02T09:40:30;18.13;;;12.95;;
36653;SDS011;22650;49.350;20.898;2024-03-02T09:43:04;19.08;;;12.85;;
36653;SDS011;22650;49.350;20.898;2024-03-02T09:45:38;22.98;;;14.25;;
36653;SDS011;22650;49.350;20.898;2024-03-02T09:48:12;19.95;;;12.65;;
36653;SDS011;22650;49.350;20.898;2024-03-02T09:50:47;19.70;;;12.35;;
36653;SDS011;22650;49.350;20.898;2024-03-02T09:53:21;20.83;;;12.82;;
36653;SDS011;22650;49.350;20.898;2024-03-02T09:55:56;19.55;;;13.07;;
36653;SDS011;22650;49.350;20.898;2024-03-02T09:58:29;22.63;;;14.13;;
36653;SDS011;22650;49.350;20.898;2024-03-02T10:01:05;24.92;;;14.43;;
36653;SDS011;22650;49.350;20.898;2024-03-02T10:03:39;21.65;;;12.82;;
36653;SDS011;22650;49.350;20.898;2024-03-02T10:06:22;18.75;;;10.82;;
36653;SDS011;22650;49.350;20.898;2024-03-02T10:08:56;14.38;;;9.27;;
36653;SDS011;22650;49.350;20.898;2024-03-02T10:11:30;16.85;;;10.73;;
36653;SDS011;22650;49.350;20.898;2024-03-02T10:14:06;17.45;;;11.55;;
36653;SDS011;22650;49.350;20.898;2024-03-02T10:16:41;16.27;;;10.18;;
36653;SDS011;22650;49.350;20.898;2024-03-02T10:19:16;16.67;;;9.68;;
36653;SDS011;22650;49.350;20.898;2024-03-02T10:24:26;10.73;;;7.68;;
36653;SDS011;22650;49.350;20.898;2024-03-02T10:27:00;14.13;;;8.10;;
36653;SDS011;22650;49.350;20.898;2024-03-02T10:29:36;11.40;;;8.15;;
36653;SDS011;22650;49.350;20.898;2024-03-02T10:32:11;13.48;;;8.70;;
36653;SDS011;22650;49.350;20.898;2024-03-02T10:34:46;11.82;;;8.27;;
36653;SDS011;22650;49.350;20.898;2024-03-02T10:39:54;16.52;;;8.77;;
36653;SDS011;22650;49.350;20.898;2024-03-02T10:42:28;13.65;;;8.95;;
36653;SDS011;22650;49.350;20.898;2024-03-02T10:45:02;10.80;;;7.72;;
36653;SDS011;22650;49.350;20.898;2024-03-02T10:47:36;13.95;;;7.90;;
36653;SDS011;22650;49.350;20.898;2024-03-02T10:50:10;10.50;;;7.22;;
36653;SDS011;22650;49.350;20.898;2024-03-02T10:52:45;14.57;;;7.43;;
36653;SDS011;22650;49.350;20.898;2024-03-02T10:55:19;10.02;;;7.18;;
36653;SDS011;22650;49.350;20.898;2024-03-02T10:57:53;12.23;;;7.70;;
36653;SDS011;22650;49.350;20.898;2024-03-02T11:00:30;11.55;;;7.28;;
36653;SDS011;22650;49.350;20.898;2024-03-02T11:03:07;12.55;;;6.78;;
36653;SDS011;22650;49.350;20.898;2024-03-02T11:05:43;11.10;;;6.70;;
36653;SDS011;22650;49.350;20.898;2024-03-02T11:08:19;13.60;;;7.50;;
36653;SDS011;22650;49.350;20.898;2024-03-02T11:10:57;10.68;;;7.05;;
36653;SDS011;22650;49.350;20.898;2024-03-02T11:13:35;11.45;;;7.45;;
36653;SDS011;22650;49.350;20.898;2024-03-02T11:16:15;9.88;;;6.90;;
36653;SDS011;22650;49.350;20.898;2024-03-02T11:18:56;10.75;;;6.68;;
36653;SDS011;22650;49.350;20.898;2024-03-02T11:21:31;12.50;;;7.03;;
36653;SDS011;22650;49.350;20.898;2024-03-02T11:27:09;11.95;;;7.22;;
36653;SDS011;22650;49.350;20.898;2024-03-02T11:29:44;11.70;;;6.75;;
36653;SDS011;22650;49.350;20.898;2024-03-02T11:32:20;11.25;;;6.78;;
36653;SDS011;22650;49.350;20.898;2024-03-02T11:34:56;11.75;;;7.68;;
36653;SDS011;22650;49.350;20.898;2024-03-02T11:37:29;13.63;;;7.75;;
36653;SDS011;22650;49.350;20.898;2024-03-02T11:40:05;11.23;;;6.47;;
36653;SDS011;22650;49.350;20.898;2024-03-02T11:42:42;17.70;;;10.45;;
36653;SDS011;22650;49.350;20.898;2024-03-02T11:45:16;14.80;;;11.10;;
36653;SDS011;22650;49.350;20.898;2024-03-02T11:47:50;11.90;;;7.00;;
36653;SDS011;22650;49.350;20.898;2024-03-02T11:50:28;10.73;;;7.22;;
36653;SDS011;22650;49.350;20.898;2024-03-02T11:53:02;8.07;;;6.78;;
36653;SDS011;22650;49.350;20.898;2024-03-02T11:55:41;9.25;;;6.55;;
36653;SDS011;22650;49.350;20.898;2024-03-02T11:58:18;12.13;;;7.47;;
36653;SDS011;22650;49.350;20.898;2024-03-02T12:00:55;11.52;;;7.78;;
36653;SDS011;22650;49.350;20.898;2024-03-02T12:03:30;9.45;;;6.70;;
36653;SDS011;22650;49.350;20.898;2024-03-02T12:06:07;12.02;;;6.93;;
36653;SDS011;22650;49.350;20.898;2024-03-02T12:08:41;13.00;;;9.00;;
36653;SDS011;22650;49.350;20.898;2024-03-02T12:11:16;11.32;;;6.60;;
36653;SDS011;22650;49.350;20.898;2024-03-02T12:13:53;10.63;;;6.38;;
36653;SDS011;22650;49.350;20.898;2024-03-02T12:16:28;10.70;;;6.68;;
36653;SDS011;22650;49.350;20.898;2024-03-02T12:19:02;9.48;;;6.55;;
36653;SDS011;22650;49.350;20.898;2024-03-02T12:21:36;8.20;;;6.05;;
36653;SDS011;22650;49.350;20.898;2024-03-02T12:24:10;11.43;;;6.97;;
36653;SDS011;22650;49.350;20.898;2024-03-02T12:26:45;8.20;;;6.00;;
36653;SDS011;22650;49.350;20.898;2024-03-02T12:29:20;9.60;;;6.30;;
36653;SDS011;22650;49.350;20.898;2024-03-02T12:31:53;9.35;;;7.07;;
36653;SDS011;22650;49.350;20.898;2024-03-02T12:34:27;10.00;;;6.97;;
36653;SDS011;22650;49.350;20.898;2024-03-02T12:37:01;11.45;;;6.55;;
36653;SDS011;22650;49.350;20.898;2024-03-02T12:39:35;9.20;;;5.72;;
36653;SDS011;22650;49.350;20.898;2024-03-02T12:42:10;12.27;;;6.95;;
36653;SDS011;22650;49.350;20.898;2024-03-02T12:44:43;12.00;;;5.70;;
36653;SDS011;22650;49.350;20.898;2024-03-02T12:47:17;10.88;;;6.93;;
36653;SDS011;22650;49.350;20.898;2024-03-02T12:49:50;10.93;;;7.07;;
36653;SDS011;22650;49.350;20.898;2024-03-02T12:52:24;11.35;;;6.70;;
36653;SDS011;22650;49.350;20.898;2024-03-02T12:54:58;10.77;;;6.35;;
36653;SDS011;22650;49.350;20.898;2024-03-02T12:57:34;9.20;;;6.80;;
36653;SDS011;22650;49.350;20.898;2024-03-02T13:00:09;10.65;;;7.18;;
36653;SDS011;22650;49.350;20.898;2024-03-02T13:02:45;11.07;;;7.00;;
36653;SDS011;22650;49.350;20.898;2024-03-02T13:05:19;9.10;;;6.30;;
36653;SDS011;22650;49.350;20.898;2024-03-02T13:07:54;11.15;;;6.53;;
36653;SDS011;22650;49.350;20.898;2024-03-02T13:10:28;9.48;;;6.80;;
36653;SDS011;22650;49.350;20.898;2024-03-02T13:13:03;12.07;;;7.05;;
36653;SDS011;22650;49.350;20.898;2024-03-02T13:15:38;12.43;;;6.63;;
36653;SDS011;22650;49.350;20.898;2024-03-02T13:18:12;11.68;;;7.05;;
36653;SDS011;22650;49.350;20.898;2024-03-02T13:20:46;8.93;;;6.53;;
36653;SDS011;22650;49.350;20.898;2024-03-02T13:23:20;10.50;;;6.95;;
36653;SDS011;22650;49.350;20.898;2024-03-02T13:25:53;12.02;;;6.70;;
36653;SDS011;22650;49.350;20.898;2024-03-02T13:28:29;10.65;;;7.07;;
36653;SDS011;22650;49.350;20.898;2024-03-02T13:31:03;12.10;;;8.93;;
36653;SDS011;22650;49.350;20.898;2024-03-02T13:33:37;11.70;;;7.53;;
36653;SDS011;22650;49.350;20.898;2024-03-02T13:36:11;8.18;;;6.20;;
36653;SDS011;22650;49.350;20.898;2024-03-02T13:38:44;11.15;;;6.45;;
36653;SDS011;22650;49.350;20.898;2024-03-02T13:41:18;10.90;;;7.88;;
36653;SDS011;22650;49.350;20.898;2024-03-02T13:43:54;10.65;;;6.20;;
36653;SDS011;22650;49.350;20.898;2024-03-02T13:46:27;8.77;;;5.20;;
36653;SDS011;22650;49.350;20.898;2024-03-02T13:49:01;8.70;;;6.07;;
36653;SDS011;22650;49.350;20.898;2024-03-02T13:51:35;9.65;;;6.25;;
36653;SDS011;22650;49.350;20.898;2024-03-02T13:54:09;10.75;;;6.20;;
36653;SDS011;22650;49.350;20.898;2024-03-02T14:01:55;9.25;;;5.88;;
36653;SDS011;22650;49.350;20.898;2024-03-02T14:04:28;9.23;;;5.72;;
36653;SDS011;22650;49.350;20.898;2024-03-02T14:07:02;9.05;;;6.20;;
36653;SDS011;22650;49.350;20.898;2024-03-02T14:09:38;9.73;;;6.25;;
36653;SDS011;22650;49.350;20.898;2024-03-02T14:12:12;9.25;;;5.55;;
36653;SDS011;22650;49.350;20.898;2024-03-02T14:14:47;10.35;;;5.97;;
36653;SDS011;22650;49.350;20.898;2024-03-02T14:17:22;9.43;;;5.95;;
36653;SDS011;22650;49.350;20.898;2024-03-02T14:19:56;9.63;;;5.88;;
36653;SDS011;22650;49.350;20.898;2024-03-02T14:22:30;10.20;;;6.05;;
36653;SDS011;22650;49.350;20.898;2024-03-02T14:25:05;9.85;;;7.00;;
36653;SDS011;22650;49.350;20.898;2024-03-02T14:27:40;10.80;;;7.20;;
36653;SDS011;22650;49.350;20.898;2024-03-02T14:30:35;14.25;;;8.27;;
36653;SDS011;22650;49.350;20.898;2024-03-02T14:33:09;10.77;;;6.90;;
36653;SDS011;22650;49.350;20.898;2024-03-02T14:35:44;12.13;;;7.97;;
36653;SDS011;22650;49.350;20.898;2024-03-02T14:38:18;9.85;;;7.07;;
36653;SDS011;22650;49.350;20.898;2024-03-02T14:40:52;10.85;;;6.47;;
36653;SDS011;22650;49.350;20.898;2024-03-02T14:43:25;11.65;;;6.75;;
36653;SDS011;22650;49.350;20.898;2024-03-02T14:46:01;11.27;;;7.28;;
36653;SDS011;22650;49.350;20.898;2024-03-02T14:48:34;12.15;;;9.07;;
36653;SDS011;22650;49.350;20.898;2024-03-02T14:51:08;13.60;;;8.82;;
36653;SDS011;22650;49.350;20.898;2024-03-02T14:53:42;15.70;;;8.32;;
36653;SDS011;22650;49.350;20.898;2024-03-02T14:56:15;12.38;;;7.25;;
36653;SDS011;22650;49.350;20.898;2024-03-02T14:58:49;11.45;;;7.70;;
36653;SDS011;22650;49.350;20.898;2024-03-02T15:01:24;11.35;;;7.05;;
36653;SDS011;22650;49.350;20.898;2024-03-02T15:03:58;10.93;;;7.10;;
36653;SDS011;22650;49.350;20.898;2024-03-02T15:06:32;11.00;;;6.80;;
36653;SDS011;22650;49.350;20.898;2024-03-02T15:09:05;10.32;;;7.18;;
36653;SDS011;22650;49.350;20.898;2024-03-02T15:11:40;12.65;;;6.65;;
36653;SDS011;22650;49.350;20.898;2024-03-02T15:14:19;11.25;;;7.63;;
36653;SDS011;22650;49.350;20.898;2024-03-02T15:16:54;10.90;;;6.78;;
36653;SDS011;22650;49.350;20.898;2024-03-02T15:19:29;11.85;;;7.93;;
36653;SDS011;22650;49.350;20.898;2024-03-02T15:22:03;13.82;;;8.63;;
36653;SDS011;22650;49.350;20.898;2024-03-02T15:24:37;12.50;;;8.80;;